sensor_id;sensor_type;location;lat;lon;timestamp;temperature;humidity
35445;DHT22;21562;49.476;6.086;2023-09-18T00:01:39;22.50;99.90
35445;DHT22;21562;49.476;6.086;2023-09-18T00:04:05;22.50;99.90
35445;DHT22;21562;49.476;6.086;2023-09-18T00:06:32;22.30;99.90
35445;DHT22;21562;49.476;6.086;2023-09-18T00:08:58;21.30;99.90
35445;DHT22;21562;49.476;6.086;2023-09-18T00:11:24;20.50;99.90
35445;DHT22;21562;49.476;6.086;2023-09-18T00:13:50;20.50;99.90
35445;DHT22;21562;49.476;6.086;2023-09-18T00:16:16;20.90;99.90
35445;DHT22;21562;49.476;6.086;2023-09-18T00:18:42;20.70;99.90
35445;DHT22;21562;49.476;6.086;2023-09-18T00:21:09;20.20;99.90
35445;DHT22;21562;49.476;6.086;2023-09-18T00:23:36;20.30;99.90
35445;DHT22;21562;49.476;6.086;2023-09-18T00:26:02;20.50;99.90
35445;DHT22;21562;49.476;6.086;2023-09-18T00:28:27;20.30;99.90
35445;DHT22;21562;49.476;6.086;2023-09-18T00:30:53;19.60;99.90
35445;DHT22;21562;49.476;6.086;2023-09-18T00:33:19;19.30;99.90
35445;DHT22;21562;49.476;6.086;2023-09-18T00:35:49;19.30;99.90
35445;DHT22;21562;49.476;6.086;2023-09-18T00:38:15;19.20;99.90
35445;DHT22;21562;49.476;6.086;2023-09-18T00:40:41;19.10;99.90
35445;DHT22;21562;49.476;6.086;2023-09-18T00:43:08;19.10;99.90
35445;DHT22;21562;49.476;6.086;2023-09-18T00:45:38;19.10;99.90
35445;DHT22;21562;49.476;6.086;2023-09-18T00:48:05;19.20;99.90
35445;DHT22;21562;49.476;6.086;2023-09-18T00:50:31;19.50;99.90
35445;DHT22;21562;49.476;6.086;2023-09-18T00:52:57;19.90;99.90
35445;DHT22;21562;49.476;6.086;2023-09-18T00:55:23;20.30;99.90
35445;DHT22;21562;49.476;6.086;2023-09-18T00:57:48;20.70;99.90
35445;DHT22;21562;49.476;6.086;2023-09-18T01:00:14;21.00;99.90
35445;DHT22;21562;49.476;6.086;2023-09-18T01:02:42;21.30;99.90
35445;DHT22;21562;49.476;6.086;2023-09-18T01:05:08;21.50;99.90
35445;DHT22;21562;49.476;6.086;2023-09-18T01:07:34;21.70;99.90
35445;DHT22;21562;49.476;6.086;2023-09-18T01:10:00;21.80;99.90
35445;DHT22;21562;49.476;6.086;2023-09-18T01:12:40;21.80;99.90
35445;DHT22;21562;49.476;6.086;2023-09-18T01:15:12;21.60;99.90
35445;DHT22;21562;49.476;6.086;2023-09-18T01:17:40;21.60;99.90
35445;DHT22;21562;49.476;6.086;2023-09-18T01:20:10;21.40;99.90
35445;DHT22;21562;49.476;6.086;2023-09-18T01:22:36;21.20;99.90
35445;DHT22;21562;49.476;6.086;2023-09-18T01:25:01;21.40;99.90
35445;DHT22;21562;49.476;6.086;2023-09-18T01:27:28;21.40;99.90
35445;DHT22;21562;49.476;6.086;2023-09-18T01:29:53;21.40;99.90
35445;DHT22;21562;49.476;6.086;2023-09-18T01:32:19;21.50;99.90
35445;DHT22;21562;49.476;6.086;2023-09-18T01:34:48;21.60;99.90
35445;DHT22;21562;49.476;6.086;2023-09-18T01:37:16;21.50;99.90
35445;DHT22;21562;49.476;6.086;2023-09-18T01:39:42;21.30;99.90
35445;DHT22;21562;49.476;6.086;2023-09-18T01:42:10;21.10;99.90
35445;DHT22;21562;49.476;6.086;2023-09-18T01:44:36;20.70;99.90
35445;DHT22;21562;49.476;6.086;2023-09-18T01:47:11;20.20;99.90
35445;DHT22;21562;49.476;6.086;2023-09-18T01:49:39;20.20;99.90
35445;DHT22;21562;49.476;6.086;2023-09-18T01:52:06;20.40;99.90
35445;DHT22;21562;49.476;6.086;2023-09-18T01:54:33;20.70;99.90
35445;DHT22;21562;49.476;6.086;2023-09-18T01:56:59;21.00;99.90
35445;DHT22;21562;49.476;6.086;2023-09-18T01:59:25;21.00;99.90
35445;DHT22;21562;49.476;6.086;2023-09-18T02:01:52;21.00;99.90
35445;DHT22;21562;49.476;6.086;2023-09-18T02:04:18;20.80;99.90
35445;DHT22;21562;49.476;6.086;2023-09-18T02:06:44;21.00;99.90
35445;DHT22;21562;49.476;6.086;2023-09-18T02:09:09;21.20;99.90
35445;DHT22;21562;49.476;6.086;2023-09-18T02:11:40;21.20;99.90
35445;DHT22;21562;49.476;6.086;2023-09-18T02:14:06;21.20;99.90
35445;DHT22;21562;49.476;6.086;2023-09-18T02:16:33;21.30;99.90
35445;DHT22;21562;49.476;6.086;2023-09-18T02:18:59;21.50;99.90
35445;DHT22;21562;49.476;6.086;2023-09-18T02:21:25;21.50;99.90
35445;DHT22;21562;49.476;6.086;2023-09-18T02:23:52;21.60;99.90
35445;DHT22;21562;49.476;6.086;2023-09-18T02:26:18;21.60;99.90
35445;DHT22;21562;49.476;6.086;2023-09-18T02:28:44;21.70;99.90
35445;DHT22;21562;49.476;6.086;2023-09-18T02:31:10;21.70;99.90
35445;DHT22;21562;49.476;6.086;2023-09-18T02:33:37;21.80;99.90
35445;DHT22;21562;49.476;6.086;2023-09-18T02:36:03;21.70;99.90
35445;DHT22;21562;49.476;6.086;2023-09-18T02:38:29;21.80;99.90
35445;DHT22;21562;49.476;6.086;2023-09-18T02:40:55;21.80;99.90
35445;DHT22;21562;49.476;6.086;2023-09-18T02:43:22;21.70;99.90
35445;DHT22;21562;49.476;6.086;2023-09-18T02:45:48;21.20;99.90
35445;DHT22;21562;49.476;6.086;2023-09-18T02:48:14;20.90;99.90
35445;DHT22;21562;49.476;6.086;2023-09-18T02:50:40;20.40;99.90
35445;DHT22;21562;49.476;6.086;2023-09-18T02:53:07;20.30;99.90
35445;DHT22;21562;49.476;6.086;2023-09-18T02:55:34;20.30;99.90
35445;DHT22;21562;49.476;6.086;2023-09-18T02:58:00;20.30;99.90
35445;DHT22;21562;49.476;6.086;2023-09-18T03:00:25;20.20;99.90
35445;DHT22;21562;49.476;6.086;2023-09-18T03:02:51;20.10;99.90
35445;DHT22;21562;49.476;6.086;2023-09-18T03:05:16;20.30;99.90
35445;DHT22;21562;49.476;6.086;2023-09-18T03:07:42;20.40;99.90
35445;DHT22;21562;49.476;6.086;2023-09-18T03:10:10;20.40;99.90
35445;DHT22;21562;49.476;6.086;2023-09-18T03:12:39;20.60;99.90
35445;DHT22;21562;49.476;6.086;2023-09-18T03:15:05;20.70;99.90
35445;DHT22;21562;49.476;6.086;2023-09-18T03:17:32;20.90;99.90
35445;DHT22;21562;49.476;6.086;2023-09-18T03:19:57;20.90;99.90
35445;DHT22;21562;49.476;6.086;2023-09-18T03:22:23;21.10;99.90
35445;DHT22;21562;49.476;6.086;2023-09-18T03:24:48;20.90;99.90
35445;DHT22;21562;49.476;6.086;2023-09-18T03:27:14;21.10;99.90
35445;DHT22;21562;49.476;6.086;2023-09-18T03:29:40;21.20;99.90
35445;DHT22;21562;49.476;6.086;2023-09-18T03:32:06;21.10;99.90
35445;DHT22;21562;49.476;6.086;2023-09-18T03:34:31;21.00;99.90
35445;DHT22;21562;49.476;6.086;2023-09-18T03:36:57;20.60;99.90
35445;DHT22;21562;49.476;6.086;2023-09-18T03:39:22;20.00;99.90
35445;DHT22;21562;49.476;6.086;2023-09-18T03:41:48;20.20;99.90
35445;DHT22;21562;49.476;6.086;2023-09-18T03:44:14;20.40;99.90
35445;DHT22;21562;49.476;6.086;2023-09-18T03:46:40;20.70;99.90
35445;DHT22;21562;49.476;6.086;2023-09-18T03:49:05;20.90;99.90
35445;DHT22;21562;49.476;6.086;2023-09-18T03:51:32;21.10;99.90
35445;DHT22;21562;49.476;6.086;2023-09-18T03:53:57;21.20;99.90
35445;DHT22;21562;49.476;6.086;2023-09-18T03:56:23;21.30;99.90
35445;DHT22;21562;49.476;6.086;2023-09-18T03:58:48;21.40;99.90
35445;DHT22;21562;49.476;6.086;2023-09-18T04:01:17;21.50;99.90
35445;DHT22;21562;49.476;6.086;2023-09-18T04:03:43;21.40;99.90
35445;DHT22;21562;49.476;6.086;2023-09-18T04:06:08;21.00;99.90
35445;DHT22;21562;49.476;6.086;2023-09-18T04:08:34;20.80;99.90
35445;DHT22;21562;49.476;6.086;2023-09-18T04:11:00;20.60;99.90
35445;DHT22;21562;49.476;6.086;2023-09-18T04:13:26;20.80;99.90
35445;DHT22;21562;49.476;6.086;2023-09-18T04:15:51;20.80;99.90
35445;DHT22;21562;49.476;6.086;2023-09-18T04:18:22;20.90;99.90
35445;DHT22;21562;49.476;6.086;2023-09-18T04:20:48;20.80;99.90
35445;DHT22;21562;49.476;6.086;2023-09-18T04:23:21;20.80;99.90
35445;DHT22;21562;49.476;6.086;2023-09-18T04:25:47;21.00;99.90
35445;DHT22;21562;49.476;6.086;2023-09-18T04:28:14;20.80;99.90
35445;DHT22;21562;49.476;6.086;2023-09-18T04:30:39;20.60;99.90
35445;DHT22;21562;49.476;6.086;2023-09-18T04:33:05;20.30;99.90
35445;DHT22;21562;49.476;6.086;2023-09-18T04:35:31;20.20;99.90
35445;DHT22;21562;49.476;6.086;2023-09-18T04:37:59;19.90;99.90
35445;DHT22;21562;49.476;6.086;2023-09-18T04:40:24;19.80;99.90
35445;DHT22;21562;49.476;6.086;2023-09-18T04:42:52;19.70;99.90
35445;DHT22;21562;49.476;6.086;2023-09-18T04:45:18;19.80;99.90
35445;DHT22;21562;49.476;6.086;2023-09-18T04:47:43;19.90;99.90
35445;DHT22;21562;49.476;6.086;2023-09-18T04:50:09;19.70;99.90
35445;DHT22;21562;49.476;6.086;2023-09-18T04:52:36;19.60;99.90
35445;DHT22;21562;49.476;6.086;2023-09-18T04:55:01;19.60;99.90
35445;DHT22;21562;49.476;6.086;2023-09-18T04:57:27;19.50;99.90
35445;DHT22;21562;49.476;6.086;2023-09-18T04:59:52;19.50;99.90
35445;DHT22;21562;49.476;6.086;2023-09-18T05:02:18;19.40;99.90
35445;DHT22;21562;49.476;6.086;2023-09-18T05:04:44;19.20;99.90
35445;DHT22;21562;49.476;6.086;2023-09-18T05:07:09;19.10;99.90
35445;DHT22;21562;49.476;6.086;2023-09-18T05:09:35;18.90;99.90
35445;DHT22;21562;49.476;6.086;2023-09-18T05:12:02;19.10;99.90
35445;DHT22;21562;49.476;6.086;2023-09-18T05:14:29;19.10;99.90
35445;DHT22;21562;49.476;6.086;2023-09-18T05:16:54;19.10;99.90
35445;DHT22;21562;49.476;6.086;2023-09-18T05:19:20;19.10;99.90
35445;DHT22;21562;49.476;6.086;2023-09-18T05:21:45;19.00;99.90
35445;DHT22;21562;49.476;6.086;2023-09-18T05:24:12;19.10;99.90
35445;DHT22;21562;49.476;6.086;2023-09-18T05:26:37;19.30;99.90
35445;DHT22;21562;49.476;6.086;2023-09-18T05:29:03;19.20;99.90
35445;DHT22;21562;49.476;6.086;2023-09-18T05:31:28;19.20;99.90
35445;DHT22;21562;49.476;6.086;2023-09-18T05:33:54;19.10;99.90
35445;DHT22;21562;49.476;6.086;2023-09-18T05:36:20;19.20;99.90
35445;DHT22;21562;49.476;6.086;2023-09-18T05:38:45;19.10;99.90
35445;DHT22;21562;49.476;6.086;2023-09-18T05:41:11;18.90;99.90
35445;DHT22;21562;49.476;6.086;2023-09-18T05:43:37;19.10;99.90
35445;DHT22;21562;49.476;6.086;2023-09-18T05:46:02;19.10;99.90
35445;DHT22;21562;49.476;6.086;2023-09-18T05:48:28;19.00;99.90
35445;DHT22;21562;49.476;6.086;2023-09-18T05:50:53;19.00;99.90
35445;DHT22;21562;49.476;6.086;2023-09-18T05:53:20;19.10;99.90
35445;DHT22;21562;49.476;6.086;2023-09-18T05:55:47;19.10;99.90
35445;DHT22;21562;49.476;6.086;2023-09-18T05:58:13;19.00;99.90
35445;DHT22;21562;49.476;6.086;2023-09-18T06:00:39;19.10;99.90
35445;DHT22;21562;49.476;6.086;2023-09-18T06:03:05;19.20;99.90
35445;DHT22;21562;49.476;6.086;2023-09-18T06:05:31;19.20;99.90
35445;DHT22;21562;49.476;6.086;2023-09-18T06:07:59;19.30;99.90
35445;DHT22;21562;49.476;6.086;2023-09-18T06:10:25;19.30;99.90
35445;DHT22;21562;49.476;6.086;2023-09-18T06:12:51;19.40;99.90
35445;DHT22;21562;49.476;6.086;2023-09-18T06:15:16;19.40;99.90
35445;DHT22;21562;49.476;6.086;2023-09-18T06:17:43;19.90;99.90
35445;DHT22;21562;49.476;6.086;2023-09-18T06:20:10;20.20;99.90
35445;DHT22;21562;49.476;6.086;2023-09-18T06:22:37;20.60;99.90
35445;DHT22;21562;49.476;6.086;2023-09-18T06:25:08;20.60;99.90
35445;DHT22;21562;49.476;6.086;2023-09-18T06:27:36;20.40;99.90
35445;DHT22;21562;49.476;6.086;2023-09-18T06:30:03;20.40;99.90
35445;DHT22;21562;49.476;6.086;2023-09-18T06:32:29;20.30;99.90
35445;DHT22;21562;49.476;6.086;2023-09-18T06:34:55;20.70;99.90
35445;DHT22;21562;49.476;6.086;2023-09-18T06:37:23;20.70;99.90
35445;DHT22;21562;49.476;6.086;2023-09-18T06:39:48;20.50;99.90
35445;DHT22;21562;49.476;6.086;2023-09-18T06:42:14;20.60;99.90
35445;DHT22;21562;49.476;6.086;2023-09-18T06:44:39;20.60;99.90
35445;DHT22;21562;49.476;6.086;2023-09-18T06:47:05;20.20;99.90
35445;DHT22;21562;49.476;6.086;2023-09-18T06:49:31;20.60;99.90
35445;DHT22;21562;49.476;6.086;2023-09-18T06:51:56;20.90;99.90
35445;DHT22;21562;49.476;6.086;2023-09-18T06:54:22;20.80;99.90
35445;DHT22;21562;49.476;6.086;2023-09-18T06:56:47;20.70;99.90
35445;DHT22;21562;49.476;6.086;2023-09-18T06:59:13;20.70;99.90
35445;DHT22;21562;49.476;6.086;2023-09-18T07:01:40;20.80;99.90
35445;DHT22;21562;49.476;6.086;2023-09-18T07:04:07;21.10;99.90
35445;DHT22;21562;49.476;6.086;2023-09-18T07:06:32;21.10;99.90
35445;DHT22;21562;49.476;6.086;2023-09-18T07:08:58;21.00;99.90
35445;DHT22;21562;49.476;6.086;2023-09-18T07:11:24;21.30;99.90
35445;DHT22;21562;49.476;6.086;2023-09-18T07:13:50;21.00;99.90
35445;DHT22;21562;49.476;6.086;2023-09-18T07:16:16;20.50;99.90
35445;DHT22;21562;49.476;6.086;2023-09-18T07:18:41;20.50;99.90
35445;DHT22;21562;49.476;6.086;2023-09-18T07:21:08;20.80;99.90
35445;DHT22;21562;49.476;6.086;2023-09-18T07:23:33;20.90;99.90
35445;DHT22;21562;49.476;6.086;2023-09-18T07:26:02;20.80;99.90
35445;DHT22;21562;49.476;6.086;2023-09-18T07:28:28;20.50;99.90
35445;DHT22;21562;49.476;6.086;2023-09-18T07:30:54;20.30;99.90
35445;DHT22;21562;49.476;6.086;2023-09-18T07:33:19;20.10;99.90
35445;DHT22;21562;49.476;6.086;2023-09-18T07:35:47;20.40;99.90
35445;DHT22;21562;49.476;6.086;2023-09-18T07:38:13;20.60;99.90
35445;DHT22;21562;49.476;6.086;2023-09-18T07:40:39;20.50;99.90
35445;DHT22;21562;49.476;6.086;2023-09-18T07:43:05;20.70;99.90
35445;DHT22;21562;49.476;6.086;2023-09-18T07:45:30;20.60;99.90
35445;DHT22;21562;49.476;6.086;2023-09-18T07:47:56;20.40;99.90
35445;DHT22;21562;49.476;6.086;2023-09-18T07:50:22;19.80;99.90
35445;DHT22;21562;49.476;6.086;2023-09-18T07:52:47;20.00;99.90
35445;DHT22;21562;49.476;6.086;2023-09-18T07:55:13;20.30;99.90
35445;DHT22;21562;49.476;6.086;2023-09-18T07:57:39;20.30;99.90
35445;DHT22;21562;49.476;6.086;2023-09-18T08:00:06;20.30;99.90
35445;DHT22;21562;49.476;6.086;2023-09-18T08:02:36;20.60;99.90
35445;DHT22;21562;49.476;6.086;2023-09-18T08:05:03;20.50;99.90
35445;DHT22;21562;49.476;6.086;2023-09-18T08:07:30;20.60;99.90
35445;DHT22;21562;49.476;6.086;2023-09-18T08:09:56;20.60;99.90
35445;DHT22;21562;49.476;6.086;2023-09-18T08:12:23;20.40;99.90
35445;DHT22;21562;49.476;6.086;2023-09-18T08:14:48;20.30;99.90
35445;DHT22;21562;49.476;6.086;2023-09-18T08:17:15;20.40;99.90
35445;DHT22;21562;49.476;6.086;2023-09-18T08:19:41;20.40;99.90
35445;DHT22;21562;49.476;6.086;2023-09-18T08:22:08;20.20;99.90
35445;DHT22;21562;49.476;6.086;2023-09-18T08:24:33;20.00;99.90
35445;DHT22;21562;49.476;6.086;2023-09-18T08:26:59;20.00;99.90
35445;DHT22;21562;49.476;6.086;2023-09-18T08:29:24;20.00;99.90
35445;DHT22;21562;49.476;6.086;2023-09-18T08:31:50;20.30;99.90
35445;DHT22;21562;49.476;6.086;2023-09-18T08:34:16;20.60;99.90
35445;DHT22;21562;49.476;6.086;2023-09-18T08:36:42;20.70;99.90
35445;DHT22;21562;49.476;6.086;2023-09-18T08:39:08;20.40;99.90
35445;DHT22;21562;49.476;6.086;2023-09-18T08:41:38;20.30;99.90
35445;DHT22;21562;49.476;6.086;2023-09-18T08:44:03;20.20;99.90
35445;DHT22;21562;49.476;6.086;2023-09-18T08:46:31;20.30;99.90
35445;DHT22;21562;49.476;6.086;2023-09-18T08:49:00;20.60;99.90
35445;DHT22;21562;49.476;6.086;2023-09-18T08:51:26;20.90;99.90
35445;DHT22;21562;49.476;6.086;2023-09-18T08:53:53;20.70;99.90
35445;DHT22;21562;49.476;6.086;2023-09-18T08:56:21;20.60;99.90
35445;DHT22;21562;49.476;6.086;2023-09-18T08:58:47;20.70;99.90
35445;DHT22;21562;49.476;6.086;2023-09-18T09:01:24;21.20;99.90
35445;DHT22;21562;49.476;6.086;2023-09-18T09:03:53;21.20;99.90
35445;DHT22;21562;49.476;6.086;2023-09-18T09:06:18;21.40;99.90
35445;DHT22;21562;49.476;6.086;2023-09-18T09:08:44;21.70;99.90
35445;DHT22;21562;49.476;6.086;2023-09-18T09:11:10;21.20;99.90
35445;DHT22;21562;49.476;6.086;2023-09-18T09:13:36;21.10;99.90
35445;DHT22;21562;49.476;6.086;2023-09-18T09:16:02;21.30;99.90
35445;DHT22;21562;49.476;6.086;2023-09-18T09:18:29;20.80;99.90
35445;DHT22;21562;49.476;6.086;2023-09-18T09:20:58;21.00;99.90
35445;DHT22;21562;49.476;6.086;2023-09-18T09:23:29;21.20;99.90
35445;DHT22;21562;49.476;6.086;2023-09-18T09:26:15;21.40;99.90
35445;DHT22;21562;49.476;6.086;2023-09-18T09:28:43;21.60;99.90
35445;DHT22;21562;49.476;6.086;2023-09-18T09:31:09;21.80;99.90
35445;DHT22;21562;49.476;6.086;2023-09-18T09:33:36;21.80;99.90
35445;DHT22;21562;49.476;6.086;2023-09-18T09:36:04;22.10;99.90
35445;DHT22;21562;49.476;6.086;2023-09-18T09:38:32;22.10;99.90
35445;DHT22;21562;49.476;6.086;2023-09-18T09:41:02;22.20;99.90
35445;DHT22;21562;49.476;6.086;2023-09-18T09:43:31;21.70;99.90
35445;DHT22;21562;49.476;6.086;2023-09-18T09:45:59;21.80;99.90
35445;DHT22;21562;49.476;6.086;2023-09-18T09:48:25;22.20;99.90
35445;DHT22;21562;49.476;6.086;2023-09-18T09:50:52;22.50;99.90
35445;DHT22;21562;49.476;6.086;2023-09-18T09:53:18;22.90;99.90
35445;DHT22;21562;49.476;6.086;2023-09-18T09:55:44;22.80;99.90
35445;DHT22;21562;49.476;6.086;2023-09-18T09:58:11;22.30;99.90
35445;DHT22;21562;49.476;6.086;2023-09-18T10:00:51;22.30;99.90
35445;DHT22;21562;49.476;6.086;2023-09-18T10:03:19;22.60;99.90
35445;DHT22;21562;49.476;6.086;2023-09-18T10:05:47;22.40;99.90
35445;DHT22;21562;49.476;6.086;2023-09-18T10:08:19;22.60;99.90
35445;DHT22;21562;49.476;6.086;2023-09-18T10:10:49;22.30;99.90
35445;DHT22;21562;49.476;6.086;2023-09-18T10:16:12;22.30;99.90
35445;DHT22;21562;49.476;6.086;2023-09-18T10:26:38;22.80;99.90
35445;DHT22;21562;49.476;6.086;2023-09-18T10:29:09;22.80;99.90
35445;DHT22;21562;49.476;6.086;2023-09-18T10:31:39;22.80;99.90
35445;DHT22;21562;49.476;6.086;2023-09-18T10:34:06;23.00;99.90
35445;DHT22;21562;49.476;6.086;2023-09-18T10:36:33;22.70;99.90
35445;DHT22;21562;49.476;6.086;2023-09-18T10:38:59;23.30;99.90
35445;DHT22;21562;49.476;6.086;2023-09-18T10:41:26;23.70;99.90
35445;DHT22;21562;49.476;6.086;2023-09-18T10:43:53;24.00;99.90
35445;DHT22;21562;49.476;6.086;2023-09-18T10:46:23;23.90;99.90
35445;DHT22;21562;49.476;6.086;2023-09-18T10:48:50;23.70;99.90
35445;DHT22;21562;49.476;6.086;2023-09-18T10:51:20;23.10;99.90
35445;DHT22;21562;49.476;6.086;2023-09-18T10:53:47;22.70;99.90
35445;DHT22;21562;49.476;6.086;2023-09-18T10:56:16;22.10;99.90
35445;DHT22;21562;49.476;6.086;2023-09-18T10:58:43;22.00;99.90
35445;DHT22;21562;49.476;6.086;2023-09-18T11:01:11;22.50;99.90
35445;DHT22;21562;49.476;6.086;2023-09-18T11:03:38;22.90;99.90
35445;DHT22;21562;49.476;6.086;2023-09-18T11:06:05;23.40;99.90
35445;DHT22;21562;49.476;6.086;2023-09-18T11:08:42;23.40;99.90
35445;DHT22;21562;49.476;6.086;2023-09-18T11:11:10;23.50;99.90
35445;DHT22;21562;49.476;6.086;2023-09-18T11:13:44;23.80;99.90
35445;DHT22;21562;49.476;6.086;2023-09-18T11:18:53;24.20;99.90
35445;DHT22;21562;49.476;6.086;2023-09-18T11:21:24;24.10;99.90
35445;DHT22;21562;49.476;6.086;2023-09-18T11:24:04;23.10;99.90
35445;DHT22;21562;49.476;6.086;2023-09-18T11:26:34;23.10;99.90
35445;DHT22;21562;49.476;6.086;2023-09-18T11:29:10;23.20;99.90
35445;DHT22;21562;49.476;6.086;2023-09-18T11:31:44;23.30;99.90
35445;DHT22;21562;49.476;6.086;2023-09-18T11:34:30;23.80;99.90
35445;DHT22;21562;49.476;6.086;2023-09-18T11:37:20;23.80;99.90
35445;DHT22;21562;49.476;6.086;2023-09-18T11:39:46;23.80;99.90
35445;DHT22;21562;49.476;6.086;2023-09-18T11:42:21;23.90;99.90
35445;DHT22;21562;49.476;6.086;2023-09-18T11:44:52;23.10;99.90
35445;DHT22;21562;49.476;6.086;2023-09-18T11:47:19;23.10;99.90
35445;DHT22;21562;49.476;6.086;2023-09-18T11:49:52;23.40;99.90
35445;DHT22;21562;49.476;6.086;2023-09-18T11:52:29;23.00;99.90
35445;DHT22;21562;49.476;6.086;2023-09-18T11:54:56;22.90;99.90
35445;DHT22;21562;49.476;6.086;2023-09-18T11:57:22;22.90;99.90
35445;DHT22;21562;49.476;6.086;2023-09-18T11:59:49;23.00;99.90
35445;DHT22;21562;49.476;6.086;2023-09-18T12:02:25;22.80;99.90
35445;DHT22;21562;49.476;6.086;2023-09-18T12:04:56;22.70;99.90
35445;DHT22;21562;49.476;6.086;2023-09-18T12:07:22;23.00;99.90
35445;DHT22;21562;49.476;6.086;2023-09-18T12:09:50;22.80;99.90
35445;DHT22;21562;49.476;6.086;2023-09-18T12:12:16;22.80;99.90
35445;DHT22;21562;49.476;6.086;2023-09-18T12:14:43;22.80;99.90
35445;DHT22;21562;49.476;6.086;2023-09-18T12:17:14;23.10;99.90
35445;DHT22;21562;49.476;6.086;2023-09-18T12:19:53;23.60;99.90
35445;DHT22;21562;49.476;6.086;2023-09-18T12:22:30;24.20;99.90
35445;DHT22;21562;49.476;6.086;2023-09-18T12:25:13;24.60;99.90
35445;DHT22;21562;49.476;6.086;2023-09-18T12:27:42;24.10;99.90
35445;DHT22;21562;49.476;6.086;2023-09-18T12:30:08;23.80;99.90
35445;DHT22;21562;49.476;6.086;2023-09-18T12:32:38;24.00;99.90
35445;DHT22;21562;49.476;6.086;2023-09-18T12:35:06;24.50;99.90
35445;DHT22;21562;49.476;6.086;2023-09-18T12:37:39;24.70;99.90
35445;DHT22;21562;49.476;6.086;2023-09-18T12:40:07;24.50;99.90
35445;DHT22;21562;49.476;6.086;2023-09-18T12:42:38;24.60;99.90
35445;DHT22;21562;49.476;6.086;2023-09-18T12:45:07;24.50;99.90
35445;DHT22;21562;49.476;6.086;2023-09-18T12:47:34;24.90;99.90
35445;DHT22;21562;49.476;6.086;2023-09-18T12:50:03;24.70;99.90
35445;DHT22;21562;49.476;6.086;2023-09-18T12:52:30;24.30;99.90
35445;DHT22;21562;49.476;6.086;2023-09-18T12:54:57;24.50;99.90
35445;DHT22;21562;49.476;6.086;2023-09-18T12:57:25;24.70;99.90
35445;DHT22;21562;49.476;6.086;2023-09-18T12:59:51;24.00;99.90
35445;DHT22;21562;49.476;6.086;2023-09-18T13:02:19;24.00;99.90
35445;DHT22;21562;49.476;6.086;2023-09-18T13:05:11;23.70;99.90
35445;DHT22;21562;49.476;6.086;2023-09-18T13:07:45;24.10;99.90
35445;DHT22;21562;49.476;6.086;2023-09-18T13:10:11;24.50;99.90
35445;DHT22;21562;49.476;6.086;2023-09-18T13:12:47;24.60;99.90
35445;DHT22;21562;49.476;6.086;2023-09-18T13:15:25;25.00;99.90
35445;DHT22;21562;49.476;6.086;2023-09-18T13:17:53;24.70;99.90
35445;DHT22;21562;49.476;6.086;2023-09-18T13:20:27;25.00;99.90
35445;DHT22;21562;49.476;6.086;2023-09-18T13:22:55;24.60;99.90
35445;DHT22;21562;49.476;6.086;2023-09-18T13:25:40;24.70;99.90
35445;DHT22;21562;49.476;6.086;2023-09-18T13:28:09;24.30;99.90
35445;DHT22;21562;49.476;6.086;2023-09-18T13:30:40;24.40;99.90
35445;DHT22;21562;49.476;6.086;2023-09-18T13:33:11;24.50;99.90
35445;DHT22;21562;49.476;6.086;2023-09-18T13:35:40;24.30;99.90
35445;DHT22;21562;49.476;6.086;2023-09-18T13:38:07;24.10;99.90
35445;DHT22;21562;49.476;6.086;2023-09-18T13:40:34;23.80;99.90
35445;DHT22;21562;49.476;6.086;2023-09-18T13:43:02;24.10;99.90
35445;DHT22;21562;49.476;6.086;2023-09-18T13:45:30;24.40;99.90
35445;DHT22;21562;49.476;6.086;2023-09-18T13:47:55;24.50;99.90
35445;DHT22;21562;49.476;6.086;2023-09-18T13:50:21;24.40;99.90
35445;DHT22;21562;49.476;6.086;2023-09-18T13:52:46;24.40;99.90
35445;DHT22;21562;49.476;6.086;2023-09-18T13:55:12;24.10;99.90
35445;DHT22;21562;49.476;6.086;2023-09-18T13:57:38;24.50;99.90
35445;DHT22;21562;49.476;6.086;2023-09-18T14:00:07;24.50;99.90
35445;DHT22;21562;49.476;6.086;2023-09-18T14:02:36;24.70;99.90
35445;DHT22;21562;49.476;6.086;2023-09-18T14:05:02;24.80;99.90
35445;DHT22;21562;49.476;6.086;2023-09-18T14:07:29;24.40;99.90
35445;DHT22;21562;49.476;6.086;2023-09-18T14:09:55;24.70;99.90
35445;DHT22;21562;49.476;6.086;2023-09-18T14:12:21;24.70;99.90
35445;DHT22;21562;49.476;6.086;2023-09-18T14:14:46;24.60;99.90
35445;DHT22;21562;49.476;6.086;2023-09-18T14:17:12;24.60;99.90
35445;DHT22;21562;49.476;6.086;2023-09-18T14:19:38;24.70;99.90
35445;DHT22;21562;49.476;6.086;2023-09-18T14:22:05;25.10;99.90
35445;DHT22;21562;49.476;6.086;2023-09-18T14:24:31;25.40;99.90
35445;DHT22;21562;49.476;6.086;2023-09-18T14:27:03;25.70;99.90
35445;DHT22;21562;49.476;6.086;2023-09-18T14:29:29;25.70;99.90
35445;DHT22;21562;49.476;6.086;2023-09-18T14:31:59;25.20;99.90
35445;DHT22;21562;49.476;6.086;2023-09-18T14:34:25;24.50;99.90
35445;DHT22;21562;49.476;6.086;2023-09-18T14:36:50;24.40;99.90
35445;DHT22;21562;49.476;6.086;2023-09-18T14:39:16;23.90;99.90
35445;DHT22;21562;49.476;6.086;2023-09-18T14:41:41;23.90;99.90
35445;DHT22;21562;49.476;6.086;2023-09-18T14:44:08;24.00;99.90
35445;DHT22;21562;49.476;6.086;2023-09-18T14:46:35;24.10;99.90
35445;DHT22;21562;49.476;6.086;2023-09-18T14:49:03;24.10;99.90
35445;DHT22;21562;49.476;6.086;2023-09-18T14:51:28;24.60;99.90
35445;DHT22;21562;49.476;6.086;2023-09-18T14:53:55;24.70;99.90
35445;DHT22;21562;49.476;6.086;2023-09-18T14:56:21;24.30;99.90
35445;DHT22;21562;49.476;6.086;2023-09-18T14:58:46;24.10;99.90
35445;DHT22;21562;49.476;6.086;2023-09-18T15:01:12;24.00;99.90
35445;DHT22;21562;49.476;6.086;2023-09-18T15:03:39;24.10;99.90
35445;DHT22;21562;49.476;6.086;2023-09-18T15:06:05;24.40;99.90
35445;DHT22;21562;49.476;6.086;2023-09-18T15:08:33;24.40;99.90
35445;DHT22;21562;49.476;6.086;2023-09-18T15:10:58;24.40;99.90
35445;DHT22;21562;49.476;6.086;2023-09-18T15:13:24;24.50;99.90
35445;DHT22;21562;49.476;6.086;2023-09-18T15:15:50;25.00;99.90
35445;DHT22;21562;49.476;6.086;2023-09-18T15:18:16;25.20;99.90
35445;DHT22;21562;49.476;6.086;2023-09-18T15:20:42;25.00;99.90
35445;DHT22;21562;49.476;6.086;2023-09-18T15:23:07;24.90;99.90
35445;DHT22;21562;49.476;6.086;2023-09-18T15:25:33;24.90;99.90
35445;DHT22;21562;49.476;6.086;2023-09-18T15:28:04;25.30;99.90
35445;DHT22;21562;49.476;6.086;2023-09-18T15:30:31;25.40;99.90
35445;DHT22;21562;49.476;6.086;2023-09-18T15:32:56;25.40;99.90
35445;DHT22;21562;49.476;6.086;2023-09-18T15:35:26;25.50;99.90
35445;DHT22;21562;49.476;6.086;2023-09-18T15:37:52;25.80;99.90
35445;DHT22;21562;49.476;6.086;2023-09-18T15:40:19;25.60;99.90
35445;DHT22;21562;49.476;6.086;2023-09-18T15:42:46;25.10;99.90
35445;DHT22;21562;49.476;6.086;2023-09-18T15:45:13;24.70;99.90